createdAt,value
2023-01-13T00:00:35.452Z,13.10
2023-01-13T00:03:02.657Z,12.50
2023-01-13T00:05:29.879Z,12.97
2023-01-13T00:07:57.038Z,11.13
2023-01-13T00:10:24.277Z,10.97
2023-01-13T00:12:52.444Z,12.00
2023-01-13T00:15:19.649Z,9.97
2023-01-13T00:17:48.586Z,9.07
2023-01-13T00:20:15.903Z,10.00
2023-01-13T00:22:43.140Z,10.23
2023-01-13T00:25:10.576Z,8.60
2023-01-13T00:27:37.922Z,8.30
2023-01-13T00:30:05.652Z,8.83
2023-01-13T00:32:32.894Z,9.20
2023-01-13T00:35:00.065Z,9.17
2023-01-13T00:37:27.264Z,8.40
2023-01-13T00:39:54.629Z,8.80
2023-01-13T00:42:40.430Z,9.30
2023-01-13T00:45:07.721Z,8.83
2023-01-13T00:47:34.901Z,7.43
2023-01-13T00:50:02.150Z,7.37
2023-01-13T00:52:29.358Z,6.60
2023-01-13T00:54:56.559Z,7.23
2023-01-13T00:57:23.723Z,7.10
2023-01-13T00:59:50.989Z,7.33
2023-01-13T01:02:18.306Z,6.73
2023-01-13T01:04:45.522Z,6.63
2023-01-13T01:07:12.700Z,6.77
2023-01-13T01:09:40.540Z,5.90
2023-01-13T01:12:07.793Z,5.97
2023-01-13T01:14:34.999Z,6.57
2023-01-13T01:17:02.230Z,6.17
2023-01-13T01:19:29.378Z,6.00
2023-01-13T01:21:56.542Z,5.77
2023-01-13T01:24:23.785Z,7.87
2023-01-13T01:26:51.031Z,7.10
2023-01-13T01:29:18.244Z,5.30
2023-01-13T01:31:45.527Z,6.13
2023-01-13T01:34:12.744Z,4.87
2023-01-13T01:36:40.109Z,6.43
2023-01-13T01:39:07.480Z,6.13
2023-01-13T01:41:35.639Z,5.53
2023-01-13T01:44:07.221Z,6.27
2023-01-13T01:46:42.153Z,4.80
2023-01-13T01:49:32.200Z,5.10
2023-01-13T01:52:09.564Z,5.90
2023-01-13T01:54:46.018Z,4.47
2023-01-13T01:57:16.298Z,5.67
2023-01-13T01:59:43.603Z,5.50
2023-01-13T02:02:10.991Z,4.37
2023-01-13T02:04:50.348Z,4.70
2023-01-13T02:07:28.366Z,5.10
2023-01-13T02:09:56.857Z,4.57
2023-01-13T02:12:31.974Z,4.57
2023-01-13T02:15:05.036Z,4.77
2023-01-13T02:17:51.026Z,4.87
2023-01-13T02:20:21.165Z,3.70
2023-01-13T02:22:51.148Z,5.63
2023-01-13T02:25:22.430Z,5.93
2023-01-13T02:28:03.605Z,5.97
2023-01-13T02:30:58.590Z,6.87
2023-01-13T02:33:34.742Z,6.27
2023-01-13T02:36:14.069Z,6.23
2023-01-13T02:38:59.083Z,6.27
2023-01-13T02:41:50.923Z,6.73
2023-01-13T02:44:21.173Z,6.33
2023-01-13T02:46:55.984Z,6.93
2023-01-13T02:49:32.836Z,6.97
2023-01-13T02:52:03.164Z,7.93
2023-01-13T02:54:31.154Z,8.30
2023-01-13T02:56:58.971Z,12.77
2023-01-13T02:59:27.821Z,10.37
2023-01-13T03:01:57.347Z,10.27
2023-01-13T03:04:47.922Z,11.03
2023-01-13T03:07:18.076Z,11.00
2023-01-13T03:09:49.235Z,12.70
2023-01-13T03:12:21.838Z,14.47
2023-01-13T03:14:58.170Z,14.07
2023-01-13T03:17:25.277Z,13.07
2023-01-13T03:19:55.207Z,16.47
2023-01-13T03:22:25.167Z,14.07
2023-01-13T03:24:52.286Z,18.77
2023-01-13T03:27:22.498Z,15.33
2023-01-13T03:29:58.167Z,15.83
2023-01-13T03:32:28.073Z,22.10
2023-01-13T03:35:01.495Z,17.00
2023-01-13T03:37:31.470Z,13.33
2023-01-13T03:40:00.982Z,13.73
2023-01-13T03:42:29.261Z,16.77
2023-01-13T03:45:12.694Z,22.20
2023-01-13T03:47:54.778Z,18.60
2023-01-13T03:50:30.763Z,14.83
2023-01-13T03:53:06.669Z,18.63
2023-01-13T03:55:35.769Z,19.67
2023-01-13T03:58:07.679Z,17.67
2023-01-13T04:00:43.082Z,17.57
2023-01-13T04:03:15.572Z,21.23
2023-01-13T04:05:44.484Z,15.77
2023-01-13T04:08:22.758Z,19.17
2023-01-13T04:10:55.877Z,14.07
2023-01-13T04:13:24.274Z,17.77
2023-01-13T04:15:51.443Z,23.27
2023-01-13T04:18:21.198Z,19.57
2023-01-13T04:20:49.934Z,19.03
2023-01-13T04:23:17.993Z,20.27
2023-01-13T04:25:45.582Z,20.77
2023-01-13T04:28:13.084Z,18.27
2023-01-13T04:30:40.825Z,24.77
2023-01-13T04:33:08.127Z,22.17
2023-01-13T04:35:35.490Z,21.93
2023-01-13T04:38:03.784Z,25.60
2023-01-13T04:40:31.116Z,15.63
2023-01-13T04:42:58.286Z,24.97
2023-01-13T04:45:25.441Z,20.63
2023-01-13T04:47:52.569Z,21.70
2023-01-13T04:50:19.945Z,20.23
2023-01-13T04:52:49.622Z,17.53
2023-01-13T04:55:17.397Z,16.47
2023-01-13T04:57:44.990Z,21.10
2023-01-13T05:00:13.480Z,20.47
2023-01-13T05:02:40.790Z,18.00
2023-01-13T05:05:08.068Z,14.90
2023-01-13T05:07:35.270Z,18.73
2023-01-13T05:10:02.426Z,18.50
2023-01-13T05:12:48.095Z,13.73
2023-01-13T05:15:34.549Z,20.13
2023-01-13T05:18:02.115Z,17.17
2023-01-13T05:20:29.288Z,17.43
2023-01-13T05:23:15.100Z,19.47
2023-01-13T05:25:44.601Z,15.53
2023-01-13T05:28:12.074Z,18.47
2023-01-13T05:30:43.731Z,26.13
2023-01-13T05:33:11.600Z,21.23
2023-01-13T05:35:39.691Z,19.00
2023-01-13T05:38:06.907Z,19.77
2023-01-13T05:40:53.015Z,20.10
2023-01-13T05:43:21.585Z,22.87
2023-01-13T05:45:49.977Z,23.70
2023-01-13T05:48:17.785Z,22.33
2023-01-13T05:50:45.004Z,29.50
2023-01-13T05:53:12.139Z,20.73
2023-01-13T05:55:40.232Z,23.93
2023-01-13T05:58:08.323Z,27.70
2023-01-13T06:00:35.841Z,30.90
2023-01-13T06:03:03.488Z,21.20
2023-01-13T06:05:31.022Z,22.53
2023-01-13T06:07:58.971Z,22.87
2023-01-13T06:10:26.843Z,25.03
2023-01-13T06:12:54.227Z,19.73
2023-01-13T06:15:21.647Z,25.90
2023-01-13T06:17:48.817Z,25.40
2023-01-13T06:20:16.422Z,23.47
2023-01-13T06:22:45.612Z,29.10
2023-01-13T06:25:36.111Z,20.40
2023-01-13T06:28:03.768Z,19.47
2023-01-13T06:30:34.863Z,22.60
2023-01-13T06:33:04.295Z,18.07
2023-01-13T06:35:33.518Z,17.17
2023-01-13T06:38:02.177Z,16.73
2023-01-13T06:40:29.506Z,22.40
2023-01-13T06:43:16.777Z,20.97
2023-01-13T06:45:45.998Z,20.40
2023-01-13T06:48:13.398Z,17.73
2023-01-13T06:50:42.151Z,18.87
2023-01-13T06:53:09.549Z,19.00
2023-01-13T06:55:36.854Z,18.87
2023-01-13T06:58:04.028Z,19.17
2023-01-13T07:00:32.691Z,16.37
2023-01-13T07:03:09.478Z,22.00
2023-01-13T07:05:36.720Z,17.30
2023-01-13T07:08:04.281Z,25.10
2023-01-13T07:10:31.765Z,22.93
2023-01-13T07:13:19.007Z,22.23
2023-01-13T07:15:58.906Z,22.53
2023-01-13T07:18:27.451Z,21.73
2023-01-13T07:21:01.916Z,21.77
2023-01-13T07:23:30.417Z,23.03
2023-01-13T07:25:58.329Z,24.07
2023-01-13T07:28:25.702Z,24.03
2023-01-13T07:30:53.357Z,14.03
2023-01-13T07:33:20.570Z,18.23
2023-01-13T07:35:48.240Z,21.83
2023-01-13T07:38:16.074Z,16.43
2023-01-13T07:40:43.220Z,20.37
2023-01-13T07:43:30.903Z,16.47
2023-01-13T07:46:02.993Z,22.73
2023-01-13T07:48:30.236Z,21.33
2023-01-13T07:50:57.456Z,24.80
2023-01-13T07:53:25.940Z,21.83
2023-01-13T07:55:56.856Z,28.27
2023-01-13T07:58:24.309Z,28.50
2023-01-13T08:00:51.608Z,25.40
2023-01-13T08:03:18.920Z,26.97
2023-01-13T08:05:46.735Z,22.93
2023-01-13T08:08:13.974Z,24.27
2023-01-13T08:10:41.141Z,27.67
2023-01-13T08:13:20.180Z,27.43
2023-01-13T08:15:52.003Z,31.07
2023-01-13T08:18:21.975Z,29.30
2023-01-13T08:20:49.844Z,28.43
2023-01-13T08:23:17.093Z,30.23
2023-01-13T08:25:44.243Z,30.90
2023-01-13T08:28:11.863Z,38.37
2023-01-13T08:30:39.060Z,33.20
2023-01-13T08:33:10.106Z,35.03
2023-01-13T08:35:38.559Z,32.03
2023-01-13T08:38:06.090Z,24.50
2023-01-13T08:40:33.461Z,34.97
2023-01-13T08:43:00.915Z,32.27
2023-01-13T08:45:28.062Z,39.23
2023-01-13T08:47:55.245Z,27.03
2023-01-13T08:50:22.505Z,30.43
2023-01-13T08:52:49.651Z,32.57
2023-01-13T08:55:16.792Z,33.57
2023-01-13T08:57:43.982Z,33.50
2023-01-13T09:00:11.676Z,31.50
2023-01-13T09:02:38.800Z,29.53
2023-01-13T09:05:07.506Z,34.00
2023-01-13T09:07:35.887Z,37.40
2023-01-13T09:10:03.538Z,37.90
2023-01-13T09:12:49.527Z,39.90
2023-01-13T09:15:18.486Z,31.97
2023-01-13T09:17:46.306Z,29.87
2023-01-13T09:20:13.695Z,33.37
2023-01-13T09:22:41.419Z,30.13
2023-01-13T09:25:08.859Z,32.53
2023-01-13T09:27:36.059Z,28.97
2023-01-13T09:30:03.251Z,32.43
2023-01-13T09:32:30.409Z,36.33
2023-01-13T09:35:00.401Z,30.23
2023-01-13T09:37:37.891Z,37.47
2023-01-13T09:40:06.796Z,29.60
2023-01-13T09:43:11.585Z,22.00
2023-01-13T09:45:46.368Z,32.10
2023-01-13T09:48:13.666Z,34.60
2023-01-13T09:50:59.002Z,28.40
2023-01-13T09:53:49.234Z,28.23
2023-01-13T09:56:16.385Z,30.33
2023-01-13T09:58:44.580Z,30.27
2023-01-13T10:01:27.209Z,25.87
2023-01-13T10:03:54.717Z,30.50
2023-01-13T10:06:24.655Z,31.03
2023-01-13T10:08:51.885Z,27.77
2023-01-13T10:11:39.064Z,26.90
2023-01-13T10:14:24.345Z,23.37
2023-01-13T10:17:11.788Z,23.53
2023-01-13T10:19:42.071Z,29.03
2023-01-13T10:22:27.991Z,28.53
2023-01-13T10:25:05.812Z,25.90
2023-01-13T10:27:37.179Z,24.87
2023-01-13T10:30:13.561Z,24.70
2023-01-13T10:32:43.668Z,24.93
2023-01-13T10:35:10.829Z,26.53
2023-01-13T10:37:38.025Z,26.13
2023-01-13T10:40:07.693Z,24.03
2023-01-13T10:42:34.838Z,29.70
2023-01-13T10:45:03.635Z,29.17
2023-01-13T10:47:32.380Z,23.77
2023-01-13T10:50:11.985Z,25.43
2023-01-13T10:52:42.947Z,34.07
2023-01-13T10:55:30.576Z,26.40
2023-01-13T10:57:57.739Z,25.37
2023-01-13T11:00:32.493Z,26.00
2023-01-13T11:03:18.440Z,24.33
2023-01-13T11:05:56.027Z,20.90
2023-01-13T11:08:31.366Z,25.70
2023-01-13T11:11:00.276Z,25.83
2023-01-13T11:13:27.402Z,26.33
2023-01-13T11:15:55.403Z,23.63
2023-01-13T11:18:27.279Z,26.60
2023-01-13T11:20:55.547Z,26.27
2023-01-13T11:23:27.463Z,27.57
2023-01-13T11:25:57.325Z,28.40
2023-01-13T11:28:40.446Z,26.87
2023-01-13T11:31:07.576Z,19.83
2023-01-13T11:33:46.948Z,24.73
2023-01-13T11:36:20.593Z,24.20
2023-01-13T11:38:47.957Z,24.23
2023-01-13T11:41:15.064Z,22.60
2023-01-13T11:43:44.944Z,20.60
2023-01-13T11:46:12.123Z,17.13
2023-01-13T11:48:41.946Z,25.77
2023-01-13T11:51:16.096Z,19.40
2023-01-13T11:54:02.001Z,25.27
2023-01-13T11:56:41.403Z,17.00
2023-01-13T11:59:08.537Z,15.77
2023-01-13T12:01:49.740Z,18.43
2023-01-13T12:04:16.909Z,21.30
2023-01-13T12:06:45.992Z,20.37
2023-01-13T12:09:27.223Z,20.50
2023-01-13T12:12:13.226Z,21.60
2023-01-13T12:14:40.343Z,11.53
2023-01-13T12:17:10.559Z,19.30
2023-01-13T12:19:37.697Z,17.07
2023-01-13T12:22:18.383Z,23.00
2023-01-13T12:24:54.606Z,26.60
2023-01-13T12:27:40.122Z,22.10
2023-01-13T12:30:18.030Z,23.83
2023-01-13T12:32:46.156Z,26.17
2023-01-13T12:35:33.368Z,26.47
2023-01-13T12:38:05.218Z,20.83
2023-01-13T12:40:51.535Z,18.23
2023-01-13T12:43:41.851Z,17.73
2023-01-13T12:46:24.462Z,14.07
2023-01-13T12:48:56.681Z,19.70
2023-01-13T12:51:28.368Z,21.57
2023-01-13T12:53:56.519Z,18.80
2023-01-13T12:56:44.759Z,21.97
2023-01-13T12:59:35.168Z,16.50
2023-01-13T13:02:11.969Z,16.97
2023-01-13T13:04:51.251Z,20.00
2023-01-13T13:07:30.786Z,15.07
2023-01-13T13:10:03.022Z,14.67
2023-01-13T13:13:10.002Z,16.00
2023-01-13T13:15:37.444Z,17.13
2023-01-13T13:18:28.357Z,10.97
2023-01-13T13:20:58.446Z,13.53
2023-01-13T13:23:35.532Z,12.70
2023-01-13T13:26:21.585Z,10.97
2023-01-13T13:29:06.825Z,14.67
2023-01-13T13:31:43.100Z,13.67
2023-01-13T13:34:20.885Z,13.43
2023-01-13T13:36:56.950Z,14.83
2023-01-13T13:39:42.765Z,13.77
2023-01-13T13:42:32.829Z,11.50
2023-01-13T13:45:20.331Z,12.07
2023-01-13T13:47:47.528Z,12.80
2023-01-13T13:50:19.305Z,15.17
2023-01-13T13:52:55.768Z,17.33
2023-01-13T13:55:24.267Z,20.13
2023-01-13T13:57:52.899Z,19.57
2023-01-13T14:00:23.264Z,19.50
2023-01-13T14:02:52.465Z,23.93
2023-01-13T14:05:23.711Z,22.20
2023-01-13T14:07:52.640Z,24.27
2023-01-13T14:10:27.091Z,22.27
2023-01-13T14:12:54.294Z,26.63
2023-01-13T14:15:25.508Z,17.93
2023-01-13T14:17:52.876Z,23.70
2023-01-13T14:20:20.239Z,21.13
2023-01-13T14:22:51.402Z,23.37
2023-01-13T14:25:41.774Z,18.50
2023-01-13T14:28:21.588Z,19.33
2023-01-13T14:30:50.104Z,21.30
2023-01-13T14:33:18.590Z,20.87
2023-01-13T14:36:09.127Z,26.17
2023-01-13T14:38:36.254Z,18.87
2023-01-13T14:41:10.684Z,23.20
2023-01-13T14:43:42.860Z,25.03
2023-01-13T14:46:10.230Z,17.03
2023-01-13T14:48:37.972Z,21.47
2023-01-13T14:51:10.776Z,19.30
2023-01-13T14:53:43.070Z,17.73
2023-01-13T14:56:31.103Z,15.97
2023-01-13T14:59:02.539Z,20.03
2023-01-13T15:01:36.760Z,20.13
2023-01-13T15:04:26.990Z,21.73
2023-01-13T15:06:55.858Z,23.17
2023-01-13T15:09:27.941Z,23.07
2023-01-13T15:11:56.312Z,14.23
2023-01-13T15:14:26.035Z,15.97
2023-01-13T15:16:53.200Z,16.93
2023-01-13T15:19:20.328Z,12.73
2023-01-13T15:21:47.495Z,14.47
2023-01-13T15:24:14.606Z,16.47
2023-01-13T15:26:41.811Z,15.97
2023-01-13T15:29:12.478Z,22.53
2023-01-13T15:31:39.737Z,16.97
2023-01-13T15:34:06.882Z,15.77
2023-01-13T15:36:36.841Z,17.43
2023-01-13T15:39:04.961Z,17.40
2023-01-13T15:41:51.055Z,17.80
2023-01-13T15:44:37.026Z,11.70
2023-01-13T15:47:07.067Z,13.30
2023-01-13T15:49:38.862Z,16.27
2023-01-13T15:52:12.857Z,11.93
2023-01-13T15:54:39.970Z,14.93
2023-01-13T15:57:07.129Z,15.93
2023-01-13T15:59:34.492Z,17.93
2023-01-13T16:02:01.644Z,19.47
2023-01-13T16:04:28.800Z,14.87
2023-01-13T16:06:55.979Z,12.87
2023-01-13T16:09:23.264Z,16.53
2023-01-13T16:11:50.413Z,15.90
2023-01-13T16:14:17.526Z,19.10
2023-01-13T16:16:44.708Z,19.07
2023-01-13T16:19:12.813Z,18.57
2023-01-13T16:21:40.475Z,18.20
2023-01-13T16:24:07.644Z,26.20
2023-01-13T16:26:37.296Z,18.87
2023-01-13T16:29:04.752Z,19.93
2023-01-13T16:31:33.228Z,18.17
2023-01-13T16:34:01.445Z,16.50
2023-01-13T16:36:30.022Z,18.27
2023-01-13T16:38:57.452Z,14.80
2023-01-13T16:41:25.141Z,15.70
2023-01-13T16:43:52.419Z,14.73
2023-01-13T16:46:21.412Z,19.17
2023-01-13T16:48:48.590Z,13.90
2023-01-13T16:51:16.039Z,21.80
2023-01-13T16:53:43.180Z,13.30
2023-01-13T16:56:29.223Z,10.13
2023-01-13T16:58:57.806Z,16.60
2023-01-13T17:01:29.313Z,12.23
2023-01-13T17:03:57.143Z,12.43
2023-01-13T17:06:40.086Z,17.70
2023-01-13T17:09:08.511Z,16.40
2023-01-13T17:11:35.642Z,16.60
2023-01-13T17:14:15.087Z,17.27
2023-01-13T17:16:46.546Z,12.03
2023-01-13T17:19:13.882Z,20.40
2023-01-13T17:21:41.146Z,16.73
2023-01-13T17:24:09.622Z,18.87
2023-01-13T17:26:38.591Z,20.03
2023-01-13T17:29:07.346Z,13.83
2023-01-13T17:31:35.251Z,23.93
2023-01-13T17:34:02.996Z,24.07
2023-01-13T17:36:30.240Z,22.47
2023-01-13T17:38:57.560Z,22.20
2023-01-13T17:41:25.343Z,16.03
2023-01-13T17:43:53.311Z,12.73
2023-01-13T17:46:22.411Z,18.20
2023-01-13T17:48:50.927Z,22.93
2023-01-13T17:51:18.593Z,14.27
2023-01-13T17:53:45.874Z,18.37
2023-01-13T17:56:14.344Z,20.27
2023-01-13T17:58:41.763Z,18.70
2023-01-13T18:01:13.823Z,17.80
2023-01-13T18:03:41.187Z,16.07
2023-01-13T18:06:09.686Z,16.70
2023-01-13T18:08:36.814Z,21.10
2023-01-13T18:11:04.037Z,17.07
2023-01-13T18:13:31.697Z,16.73
2023-01-13T18:16:04.566Z,14.10
2023-01-13T18:18:31.721Z,10.77
2023-01-13T18:21:17.928Z,15.37
2023-01-13T18:23:57.291Z,14.82
2023-01-13T18:26:42.982Z,15.03
2023-01-13T18:29:10.156Z,18.80
2023-01-13T18:31:37.289Z,13.80
2023-01-13T18:34:04.468Z,14.43
2023-01-13T18:36:31.592Z,14.50
2023-01-13T18:38:58.855Z,12.43
2023-01-13T18:41:44.735Z,16.40
2023-01-13T18:44:11.871Z,13.93
2023-01-13T18:46:39.051Z,15.87
2023-01-13T18:49:06.251Z,17.57
2023-01-13T18:51:33.357Z,13.10
2023-01-13T18:54:00.910Z,13.63
2023-01-13T18:56:28.104Z,15.57
2023-01-13T18:58:55.229Z,10.80
2023-01-13T19:01:26.492Z,13.97
2023-01-13T19:03:57.495Z,14.57
2023-01-13T19:06:27.012Z,13.70
2023-01-13T19:08:55.220Z,16.63
2023-01-13T19:11:23.633Z,14.33
2023-01-13T19:13:51.538Z,13.13
2023-01-13T19:16:19.787Z,17.27
2023-01-13T19:18:47.007Z,16.67
2023-01-13T19:21:14.606Z,15.07
2023-01-13T19:23:41.965Z,18.70
2023-01-13T19:26:09.990Z,16.37
2023-01-13T19:28:39.979Z,17.50
2023-01-13T19:31:08.529Z,14.57
2023-01-13T19:33:36.991Z,14.97
2023-01-13T19:36:04.691Z,13.03
2023-01-13T19:38:32.347Z,14.07
2023-01-13T19:41:01.214Z,16.57
2023-01-13T19:43:47.554Z,12.30
2023-01-13T19:46:14.897Z,12.33
2023-01-13T19:48:43.092Z,12.40
2023-01-13T19:51:14.250Z,14.67
2023-01-13T19:53:42.171Z,15.20
2023-01-13T19:56:14.069Z,14.20
2023-01-13T19:58:42.070Z,12.90
2023-01-13T20:01:10.208Z,15.20
2023-01-13T20:03:38.067Z,12.50
2023-01-13T20:06:08.859Z,14.57
2023-01-13T20:08:36.013Z,12.90
2023-01-13T20:11:21.697Z,11.67
2023-01-13T20:13:49.294Z,14.47
2023-01-13T20:16:16.443Z,16.57
2023-01-13T20:18:43.649Z,16.73
2023-01-13T20:21:10.880Z,15.13
2023-01-13T20:23:38.063Z,15.20
2023-01-13T20:26:08.005Z,12.70
2023-01-13T20:28:37.432Z,11.60
2023-01-13T20:31:09.708Z,11.73
2023-01-13T20:33:38.488Z,11.93
2023-01-13T20:36:05.965Z,15.73
2023-01-13T20:38:37.603Z,13.87
2023-01-13T20:41:24.384Z,14.27
2023-01-13T20:43:51.827Z,13.00
2023-01-13T20:46:19.059Z,10.67
2023-01-13T20:48:46.364Z,12.67
2023-01-13T20:51:13.570Z,14.00
2023-01-13T20:53:41.499Z,10.87
2023-01-13T20:56:09.398Z,8.60
2023-01-13T20:58:39.178Z,15.90
2023-01-13T21:01:06.864Z,11.47
2023-01-13T21:03:34.154Z,13.40
2023-01-13T21:06:01.545Z,16.50
2023-01-13T21:08:28.701Z,11.93
2023-01-13T21:11:04.400Z,18.50
2023-01-13T21:13:50.720Z,14.23
2023-01-13T21:16:17.954Z,13.23
2023-01-13T21:19:03.772Z,12.77
2023-01-13T21:21:30.976Z,15.00
2023-01-13T21:23:58.117Z,13.83
2023-01-13T21:26:25.415Z,14.80
2023-01-13T21:28:56.944Z,12.23
2023-01-13T21:31:25.421Z,12.50
2023-01-13T21:33:54.893Z,13.03
2023-01-13T21:36:22.790Z,16.57
2023-01-13T21:38:53.275Z,22.77
2023-01-13T21:41:40.661Z,11.47
2023-01-13T21:44:44.514Z,9.10
2023-01-13T21:47:34.176Z,8.10
2023-01-13T21:50:01.526Z,8.30
2023-01-13T21:52:28.986Z,10.77
2023-01-13T21:55:31.519Z,10.27
2023-01-13T21:57:58.731Z,13.77
2023-01-13T22:00:27.473Z,17.67
2023-01-13T22:02:54.969Z,15.53
2023-01-13T22:05:23.224Z,13.07
2023-01-13T22:07:50.810Z,17.07
2023-01-13T22:10:19.180Z,16.43
2023-01-13T22:12:47.379Z,11.73
2023-01-13T22:15:15.690Z,12.60
2023-01-13T22:17:43.502Z,17.77
2023-01-13T22:20:11.848Z,17.10
2023-01-13T22:22:39.449Z,14.77
2023-01-13T22:25:08.138Z,16.90
2023-01-13T22:27:41.073Z,15.07
2023-01-13T22:30:09.669Z,13.57
2023-01-13T22:32:38.450Z,21.47
2023-01-13T22:35:09.598Z,14.80
2023-01-13T22:37:36.763Z,10.67
2023-01-13T22:40:04.603Z,13.80
2023-01-13T22:42:31.756Z,15.90
2023-01-13T22:44:59.002Z,19.57
2023-01-13T22:47:26.144Z,15.80
2023-01-13T22:49:53.274Z,17.70
2023-01-13T22:52:22.404Z,14.03
2023-01-13T22:54:49.552Z,16.03
2023-01-13T22:57:16.740Z,14.80
2023-01-13T22:59:43.917Z,16.33
2023-01-13T23:02:11.084Z,14.20
2023-01-13T23:04:38.243Z,14.33
2023-01-13T23:07:05.565Z,18.67
2023-01-13T23:09:33.212Z,14.93
2023-01-13T23:12:00.349Z,24.40
2023-01-13T23:14:27.821Z,17.43
2023-01-13T23:16:55.019Z,18.23
2023-01-13T23:19:22.459Z,15.07
2023-01-13T23:21:49.616Z,19.07
2023-01-13T23:24:16.829Z,22.77
2023-01-13T23:26:43.949Z,19.37
2023-01-13T23:29:12.467Z,19.63
2023-01-13T23:31:39.916Z,21.50
2023-01-13T23:34:07.110Z,21.70
2023-01-13T23:36:37.091Z,20.70
2023-01-13T23:39:04.520Z,25.00
2023-01-13T23:41:31.644Z,22.07
2023-01-13T23:44:00.068Z,34.90
2023-01-13T23:46:28.260Z,42.57
2023-01-13T23:48:55.567Z,40.03
2023-01-13T23:51:22.995Z,33.00
2023-01-13T23:53:51.126Z,38.67
2023-01-13T23:56:19.778Z,31.07
2023-01-13T23:58:47.380Z,19.53
